createdAt,value
2018-01-16T00:01:21.737Z,99.80
2018-01-16T00:03:49.369Z,99.03
2018-01-16T00:06:16.907Z,98.58
2018-01-16T00:08:44.481Z,99.00
2018-01-16T00:11:12.018Z,98.90
2018-01-16T00:13:39.641Z,99.37
2018-01-16T00:16:07.341Z,98.42
2018-01-16T00:18:34.851Z,98.75
2018-01-16T00:21:02.392Z,98.20
2018-01-16T00:23:30.270Z,98.49
2018-01-16T00:25:57.780Z,97.45
2018-01-16T00:28:25.292Z,97.80
2018-01-16T00:30:52.889Z,98.37
2018-01-16T00:33:20.433Z,97.52
2018-01-16T00:35:47.985Z,97.28
2018-01-16T00:38:15.545Z,96.87
2018-01-16T00:40:43.146Z,96.17
2018-01-16T00:43:10.667Z,95.78
2018-01-16T00:45:38.187Z,95.16
2018-01-16T00:48:05.757Z,95.47
2018-01-16T00:50:33.294Z,95.51
2018-01-16T00:53:01.155Z,96.39
2018-01-16T00:55:28.813Z,96.88
2018-01-16T00:57:56.397Z,96.46
2018-01-16T01:00:23.969Z,96.98
2018-01-16T01:02:51.556Z,96.97
2018-01-16T01:05:19.097Z,96.07
2018-01-16T01:07:46.645Z,96.91
2018-01-16T01:10:14.218Z,96.35
2018-01-16T01:12:41.820Z,96.18
2018-01-16T01:15:09.366Z,96.44
2018-01-16T01:17:37.089Z,96.96
2018-01-16T01:20:04.751Z,97.23
2018-01-16T01:22:32.294Z,96.83
2018-01-16T01:24:59.855Z,97.04
2018-01-16T01:27:27.434Z,96.55
2018-01-16T01:29:54.989Z,96.30
2018-01-16T01:32:22.534Z,96.20
2018-01-16T01:34:50.440Z,95.94
2018-01-16T01:37:17.943Z,96.04
2018-01-16T01:39:45.448Z,96.26
2018-01-16T01:42:13.017Z,95.94
2018-01-16T01:44:40.607Z,96.23
2018-01-16T01:47:08.173Z,96.25
2018-01-16T01:49:35.717Z,95.84
2018-01-16T01:52:03.519Z,95.96
2018-01-16T01:54:31.066Z,95.91
2018-01-16T01:56:58.609Z,95.81
2018-01-16T01:59:26.187Z,95.33
2018-01-16T02:01:53.723Z,95.02
2018-01-16T02:04:21.313Z,95.33
2018-01-16T02:06:49.058Z,94.66
2018-01-16T02:09:16.604Z,94.10
2018-01-16T02:11:44.480Z,94.41
2018-01-16T02:14:12.034Z,95.59
2018-01-16T02:16:39.677Z,95.83
2018-01-16T02:19:07.220Z,95.54
2018-01-16T02:21:34.781Z,94.49
2018-01-16T02:24:02.296Z,94.60
2018-01-16T02:26:29.867Z,96.41
2018-01-16T02:28:57.415Z,96.90
2018-01-16T02:31:25.092Z,96.57
2018-01-16T02:33:52.672Z,96.08
2018-01-16T02:36:20.316Z,96.51
2018-01-16T02:38:47.872Z,96.82
2018-01-16T02:41:15.415Z,97.42
2018-01-16T02:43:42.943Z,97.02
2018-01-16T02:46:10.478Z,96.84
2018-01-16T02:48:37.988Z,96.48
2018-01-16T02:51:05.540Z,97.22
2018-01-16T02:53:33.048Z,96.98
2018-01-16T02:56:00.598Z,97.02
2018-01-16T02:58:28.103Z,96.72
2018-01-16T03:00:55.639Z,96.07
2018-01-16T03:03:23.448Z,96.08
2018-01-16T03:05:50.993Z,95.34
2018-01-16T03:08:18.533Z,94.67
2018-01-16T03:10:46.400Z,93.76
2018-01-16T03:13:13.910Z,92.60
2018-01-16T03:15:41.607Z,92.81
2018-01-16T03:18:09.495Z,92.94
2018-01-16T03:20:37.029Z,92.89
2018-01-16T03:23:04.578Z,92.76
2018-01-16T03:25:32.141Z,93.50
2018-01-16T03:27:59.638Z,93.00
2018-01-16T03:30:27.222Z,93.56
2018-01-16T03:32:54.938Z,94.00
2018-01-16T03:35:22.451Z,94.05
2018-01-16T03:37:50.017Z,94.21
2018-01-16T03:40:17.524Z,93.92
2018-01-16T03:42:45.092Z,94.23
2018-01-16T03:45:12.695Z,94.57
2018-01-16T03:47:40.298Z,93.95
2018-01-16T03:50:07.939Z,94.11
2018-01-16T03:52:35.481Z,93.68
2018-01-16T03:55:03.067Z,94.26
2018-01-16T03:57:30.583Z,94.53
2018-01-16T03:59:58.443Z,93.94
2018-01-16T04:02:25.967Z,93.47
2018-01-16T04:04:53.658Z,93.71
2018-01-16T04:07:21.257Z,94.29
2018-01-16T04:09:48.830Z,93.28
2018-01-16T04:12:16.369Z,93.59
2018-01-16T04:14:43.933Z,93.67
2018-01-16T04:17:11.473Z,93.66
2018-01-16T04:19:39.360Z,94.23
2018-01-16T04:22:06.906Z,93.43
2018-01-16T04:24:34.446Z,93.50
2018-01-16T04:27:02.021Z,92.85
2018-01-16T04:29:29.835Z,93.32
2018-01-16T04:31:57.500Z,94.00
2018-01-16T04:34:25.069Z,92.78
2018-01-16T04:36:52.576Z,93.06
2018-01-16T04:39:20.076Z,92.43
2018-01-16T04:41:47.610Z,93.33
2018-01-16T04:44:15.152Z,93.96
2018-01-16T04:46:42.686Z,93.64
2018-01-16T04:49:10.290Z,94.71
2018-01-16T04:51:38.090Z,94.53
2018-01-16T04:54:05.673Z,94.22
2018-01-16T04:56:33.252Z,95.03
2018-01-16T04:59:00.747Z,94.50
2018-01-16T05:01:28.301Z,94.67
2018-01-16T05:03:55.882Z,95.89
2018-01-16T05:06:23.628Z,95.89
2018-01-16T05:08:51.165Z,96.44
2018-01-16T05:11:18.777Z,96.82
2018-01-16T05:13:46.625Z,96.61
2018-01-16T05:16:14.159Z,96.31
2018-01-16T05:18:41.692Z,97.22
2018-01-16T05:21:09.187Z,98.70
2018-01-16T05:23:36.841Z,98.60
2018-01-16T05:26:04.388Z,97.89
2018-01-16T05:28:31.898Z,97.15
2018-01-16T05:30:59.461Z,97.74
2018-01-16T05:33:27.001Z,98.45
2018-01-16T05:35:54.597Z,99.16
2018-01-16T05:38:22.114Z,99.24
2018-01-16T05:40:49.808Z,98.91
2018-01-16T05:43:17.391Z,98.83
2018-01-16T05:45:44.943Z,98.99
2018-01-16T05:48:12.483Z,98.81
2018-01-16T05:50:40.085Z,98.05
2018-01-16T05:53:07.588Z,97.95
2018-01-16T05:55:35.154Z,98.05
2018-01-16T05:58:02.983Z,99.29
2018-01-16T06:00:30.506Z,98.61
2018-01-16T06:02:58.222Z,98.49
2018-01-16T06:05:25.823Z,98.01
2018-01-16T06:07:53.326Z,98.93
2018-01-16T06:10:20.860Z,99.31
2018-01-16T06:12:48.772Z,99.53
2018-01-16T06:15:16.329Z,98.77
2018-01-16T06:17:43.878Z,98.48
2018-01-16T06:20:11.840Z,98.34
2018-01-16T06:22:39.381Z,99.86
2018-01-16T06:25:06.921Z,99.21
2018-01-16T06:27:34.497Z,99.08
2018-01-16T06:30:02.078Z,99.97
2018-01-16T06:32:29.574Z,99.76
2018-01-16T06:34:57.488Z,99.24
2018-01-16T06:37:24.995Z,99.26
2018-01-16T06:39:52.538Z,99.18
2018-01-16T06:42:20.150Z,99.38
2018-01-16T06:44:47.673Z,99.10
2018-01-16T06:47:15.217Z,100.00
2018-01-16T06:49:42.756Z,99.73
2018-01-16T06:52:10.324Z,100.00
2018-01-16T06:54:37.837Z,100.00
2018-01-16T06:57:05.385Z,100.00
2018-01-16T06:59:32.985Z,100.00
2018-01-16T07:02:00.526Z,99.72
2018-01-16T07:04:28.074Z,100.00
2018-01-16T07:06:55.631Z,100.00
2018-01-16T07:09:23.156Z,100.00
2018-01-16T07:11:50.837Z,99.66
2018-01-16T07:14:18.416Z,99.64
2018-01-16T07:16:46.022Z,99.71
2018-01-16T07:19:13.642Z,98.81
2018-01-16T07:21:41.180Z,98.57
2018-01-16T07:24:08.771Z,98.62
2018-01-16T07:26:36.292Z,99.36
2018-01-16T07:29:03.826Z,98.89
2018-01-16T07:31:31.370Z,98.65
2018-01-16T07:33:58.969Z,98.99
2018-01-16T07:36:26.578Z,100.00
2018-01-16T07:38:54.112Z,100.00
2018-01-16T07:41:21.702Z,100.00
2018-01-16T07:43:49.224Z,100.00
2018-01-16T07:46:16.773Z,100.00
2018-01-16T07:48:44.320Z,100.00
2018-01-16T07:51:11.938Z,100.00
2018-01-16T07:53:39.447Z,100.00
2018-01-16T07:56:07.001Z,100.00
2018-01-16T07:58:34.592Z,100.00
2018-01-16T08:01:02.232Z,100.00
2018-01-16T08:03:29.751Z,100.00
2018-01-16T08:05:57.313Z,100.00
2018-01-16T08:08:24.932Z,100.00
2018-01-16T08:10:52.504Z,100.00
2018-01-16T08:13:20.061Z,100.00
2018-01-16T08:15:47.618Z,100.00
2018-01-16T08:18:15.589Z,100.00
2018-01-16T08:20:43.150Z,100.00
2018-01-16T08:23:10.697Z,100.00
2018-01-16T08:25:38.262Z,100.00
2018-01-16T08:28:05.840Z,100.00
2018-01-16T08:30:33.356Z,100.00
2018-01-16T08:33:00.915Z,99.94
2018-01-16T08:35:28.470Z,100.00
2018-01-16T08:37:56.026Z,100.00
2018-01-16T08:40:23.535Z,100.00
2018-01-16T08:42:51.182Z,100.00
2018-01-16T08:45:19.104Z,100.00
2018-01-16T08:47:46.660Z,99.94
2018-01-16T08:50:14.206Z,100.00
2018-01-16T08:52:41.766Z,99.97
2018-01-16T08:55:09.560Z,99.25
2018-01-16T08:57:37.080Z,98.98
2018-01-16T09:00:04.686Z,99.65
2018-01-16T09:02:32.199Z,100.00
2018-01-16T09:04:59.852Z,100.00
2018-01-16T09:07:27.408Z,100.00
2018-01-16T09:09:55.221Z,100.00
2018-01-16T09:12:22.879Z,100.00
2018-01-16T09:14:50.387Z,100.00
2018-01-16T09:17:17.939Z,99.86
2018-01-16T09:19:45.485Z,99.76
2018-01-16T09:22:13.163Z,98.63
2018-01-16T09:24:40.845Z,99.10
2018-01-16T09:27:08.407Z,99.43
2018-01-16T09:29:36.114Z,99.20
2018-01-16T09:32:03.615Z,99.22
2018-01-16T09:34:31.205Z,99.75
2018-01-16T09:36:58.812Z,99.84
2018-01-16T09:39:26.365Z,100.00
2018-01-16T09:41:53.891Z,100.00
2018-01-16T09:44:21.429Z,100.00
2018-01-16T09:46:49.014Z,100.00
2018-01-16T09:49:16.585Z,100.00
2018-01-16T09:51:44.131Z,100.00
2018-01-16T09:54:11.671Z,100.00
2018-01-16T09:56:39.642Z,100.00
2018-01-16T09:59:07.190Z,100.00
2018-01-16T10:01:34.743Z,100.00
2018-01-16T10:04:02.322Z,100.00
2018-01-16T10:06:29.933Z,100.00
2018-01-16T10:08:57.487Z,100.00
2018-01-16T10:11:25.004Z,100.00
2018-01-16T10:13:52.613Z,100.00
2018-01-16T10:16:20.161Z,100.00
2018-01-16T10:18:47.762Z,100.00
2018-01-16T10:21:15.531Z,100.00
2018-01-16T10:23:43.934Z,100.00
2018-01-16T10:26:11.788Z,100.00
2018-01-16T10:28:39.401Z,100.00
2018-01-16T10:31:06.994Z,100.00
2018-01-16T10:33:34.528Z,100.00
2018-01-16T10:36:02.133Z,100.00
2018-01-16T10:38:29.845Z,100.00
2018-01-16T10:40:57.559Z,100.00
2018-01-16T10:43:25.336Z,98.86
2018-01-16T10:45:52.881Z,98.88
2018-01-16T10:48:20.453Z,98.77
2018-01-16T10:50:47.955Z,99.56
2018-01-16T10:53:15.514Z,99.67
2018-01-16T10:55:43.078Z,99.76
2018-01-16T10:58:10.633Z,99.23
2018-01-16T11:00:38.181Z,98.51
2018-01-16T11:03:05.718Z,99.16
2018-01-16T11:05:33.236Z,98.75
2018-01-16T11:08:00.828Z,98.49
2018-01-16T11:10:28.378Z,97.11
2018-01-16T11:12:55.913Z,97.45
2018-01-16T11:15:23.544Z,97.59
2018-01-16T11:17:51.208Z,97.92
2018-01-16T11:20:18.717Z,97.48
2018-01-16T11:22:46.603Z,97.23
2018-01-16T11:25:14.275Z,98.27
2018-01-16T11:27:41.819Z,96.51
2018-01-16T11:30:09.365Z,96.31
2018-01-16T11:32:36.935Z,95.50
2018-01-16T11:35:04.781Z,96.41
2018-01-16T11:37:32.321Z,97.00
2018-01-16T11:39:59.857Z,93.26
2018-01-16T11:42:27.434Z,93.35
2018-01-16T11:44:55.306Z,94.82
2018-01-16T11:47:22.841Z,96.00
2018-01-16T11:49:50.385Z,96.28
2018-01-16T11:52:17.993Z,96.58
2018-01-16T11:54:45.677Z,95.98
2018-01-16T11:57:13.215Z,96.50
2018-01-16T11:59:40.752Z,96.03
2018-01-16T12:02:08.350Z,96.10
2018-01-16T12:04:36.170Z,96.36
2018-01-16T12:07:03.742Z,95.53
2018-01-16T12:09:31.307Z,94.75
2018-01-16T12:11:58.877Z,94.07
2018-01-16T12:14:26.611Z,94.18
2018-01-16T12:16:54.173Z,92.99
2018-01-16T12:19:21.709Z,92.57
2018-01-16T12:21:49.305Z,91.69
2018-01-16T12:24:16.853Z,92.59
2018-01-16T12:26:44.408Z,91.47
2018-01-16T12:29:11.997Z,92.11
2018-01-16T12:31:39.529Z,92.96
2018-01-16T12:34:07.066Z,94.85
2018-01-16T12:36:34.715Z,95.47
2018-01-16T12:39:02.238Z,96.40
2018-01-16T12:41:29.742Z,97.74
2018-01-16T12:43:57.272Z,97.66
2018-01-16T12:46:24.804Z,97.67
2018-01-16T12:48:52.586Z,98.28
2018-01-16T12:51:20.091Z,98.11
2018-01-16T12:53:47.714Z,97.49
2018-01-16T12:56:15.813Z,97.84
2018-01-16T12:58:43.370Z,97.40
2018-01-16T13:01:10.931Z,97.06
2018-01-16T13:03:38.504Z,96.46
2018-01-16T13:06:06.066Z,96.61
2018-01-16T13:08:33.580Z,96.60
2018-01-16T13:11:01.117Z,96.29
2018-01-16T13:13:28.698Z,95.93
2018-01-16T13:15:56.288Z,94.36
2018-01-16T13:18:23.795Z,94.72
2018-01-16T13:20:51.304Z,93.68
2018-01-16T13:23:18.890Z,92.41
2018-01-16T13:25:46.460Z,91.46
2018-01-16T13:28:14.020Z,90.13
2018-01-16T13:30:41.559Z,90.96
2018-01-16T13:33:09.117Z,92.51
2018-01-16T13:35:37.902Z,92.16
2018-01-16T13:38:05.411Z,91.61
2018-01-16T13:40:32.925Z,92.76
2018-01-16T13:43:00.509Z,92.54
2018-01-16T13:45:28.059Z,93.34
2018-01-16T13:47:56.018Z,92.81
2018-01-16T13:50:23.568Z,94.66
2018-01-16T13:52:51.112Z,94.54
2018-01-16T13:55:18.675Z,94.75
2018-01-16T13:57:46.206Z,94.83
2018-01-16T14:00:13.720Z,93.37
2018-01-16T14:02:41.369Z,93.97
2018-01-16T14:05:08.919Z,92.16
2018-01-16T14:07:36.615Z,93.26
2018-01-16T14:10:04.247Z,93.03
2018-01-16T14:12:31.915Z,91.34
2018-01-16T14:14:59.813Z,92.62
2018-01-16T14:17:27.577Z,92.32
2018-01-16T14:19:55.090Z,93.17
2018-01-16T14:22:22.618Z,93.53
2018-01-16T14:24:50.212Z,93.33
2018-01-16T14:27:17.738Z,93.32
2018-01-16T14:29:45.256Z,92.94
2018-01-16T14:32:12.822Z,93.45
2018-01-16T14:34:40.364Z,93.55
2018-01-16T14:37:07.895Z,92.54
2018-01-16T14:39:35.398Z,93.06
2018-01-16T14:42:02.951Z,92.73
2018-01-16T14:44:30.508Z,92.00
2018-01-16T14:46:58.014Z,91.82
2018-01-16T14:49:25.605Z,91.58
2018-01-16T14:51:53.165Z,90.58
2018-01-16T14:54:20.718Z,90.91
2018-01-16T14:56:48.287Z,89.75
2018-01-16T14:59:16.241Z,90.22
2018-01-16T15:01:43.785Z,89.92
2018-01-16T15:04:11.334Z,89.92
2018-01-16T15:06:38.932Z,89.23
2018-01-16T15:09:06.912Z,89.76
2018-01-16T15:11:34.414Z,90.30
2018-01-16T15:14:01.950Z,89.95
2018-01-16T15:16:29.514Z,89.44
2018-01-16T15:18:57.107Z,89.89
2018-01-16T15:21:24.833Z,89.41
2018-01-16T15:23:52.558Z,89.75
2018-01-16T15:26:20.076Z,90.76
2018-01-16T15:28:47.636Z,91.17
2018-01-16T15:31:15.278Z,90.24
2018-01-16T15:33:42.852Z,90.46
2018-01-16T15:36:10.443Z,89.88
2018-01-16T15:38:38.034Z,90.55
2018-01-16T15:41:05.544Z,90.66
2018-01-16T15:43:33.077Z,91.17
2018-01-16T15:46:00.632Z,91.52
2018-01-16T15:48:28.160Z,91.69
2018-01-16T15:50:55.700Z,91.88
2018-01-16T15:53:23.203Z,92.13
2018-01-16T15:55:50.779Z,91.28
2018-01-16T15:58:18.472Z,92.22
2018-01-16T16:00:46.070Z,90.50
2018-01-16T16:03:13.610Z,91.44
2018-01-16T16:05:41.133Z,91.38
2018-01-16T16:08:08.702Z,91.60
2018-01-16T16:10:36.273Z,92.13
2018-01-16T16:13:03.919Z,92.60
2018-01-16T16:15:31.446Z,92.66
2018-01-16T16:17:58.942Z,93.48
2018-01-16T16:20:26.467Z,93.25
2018-01-16T16:22:54.013Z,92.67
2018-01-16T16:25:21.571Z,92.85
2018-01-16T16:27:49.096Z,92.33
2018-01-16T16:30:16.619Z,92.66
2018-01-16T16:32:44.123Z,92.24
2018-01-16T16:35:11.824Z,92.75
2018-01-16T16:37:39.441Z,92.50
2018-01-16T16:40:06.951Z,92.75
2018-01-16T16:42:34.475Z,92.69
2018-01-16T16:45:01.967Z,92.40
2018-01-16T16:47:29.545Z,91.73
2018-01-16T16:49:57.203Z,92.07
2018-01-16T16:52:24.741Z,92.01
2018-01-16T16:54:52.299Z,91.77
2018-01-16T16:57:19.878Z,92.41
2018-01-16T16:59:47.384Z,92.96
2018-01-16T17:02:14.914Z,93.36
2018-01-16T17:04:42.457Z,94.13
2018-01-16T17:07:10.014Z,94.23
2018-01-16T17:09:37.926Z,95.12
2018-01-16T17:12:05.473Z,94.70
2018-01-16T17:14:33.013Z,95.85
2018-01-16T17:17:00.548Z,96.01
2018-01-16T17:19:28.162Z,95.81
2018-01-16T17:21:55.713Z,96.10
2018-01-16T17:24:23.268Z,95.89
2018-01-16T17:26:51.144Z,95.65
2018-01-16T17:29:18.710Z,95.41
2018-01-16T17:31:46.249Z,95.46
2018-01-16T17:34:14.242Z,95.16
2018-01-16T17:36:41.755Z,94.90
2018-01-16T17:39:09.260Z,94.71
2018-01-16T17:41:36.829Z,95.41
2018-01-16T17:44:04.365Z,96.06
2018-01-16T17:46:31.899Z,95.96
2018-01-16T17:48:59.475Z,96.60
2018-01-16T17:51:27.011Z,97.23
2018-01-16T17:53:54.536Z,97.14
2018-01-16T17:56:22.140Z,96.28
2018-01-16T17:58:49.655Z,95.97
2018-01-16T18:01:17.193Z,95.99
2018-01-16T18:03:45.121Z,96.06
2018-01-16T18:06:12.897Z,95.88
2018-01-16T18:08:40.407Z,95.29
2018-01-16T18:11:08.377Z,94.68
2018-01-16T18:13:36.131Z,94.13
2018-01-16T18:16:03.636Z,94.47
2018-01-16T18:18:31.269Z,93.09
2018-01-16T18:20:58.800Z,93.42
2018-01-16T18:23:26.395Z,92.96
2018-01-16T18:25:54.093Z,93.20
2018-01-16T18:28:21.631Z,94.15
2018-01-16T18:30:49.169Z,93.07
2018-01-16T18:33:16.719Z,93.10
2018-01-16T18:35:44.277Z,93.00
2018-01-16T18:38:12.083Z,92.89
2018-01-16T18:40:39.630Z,92.81
2018-01-16T18:43:07.183Z,93.39
2018-01-16T18:45:34.786Z,93.79
2018-01-16T18:48:02.325Z,93.94
2018-01-16T18:50:29.869Z,94.07
2018-01-16T18:52:57.446Z,94.63
2018-01-16T18:55:24.981Z,96.80
2018-01-16T18:57:52.496Z,97.43
2018-01-16T19:00:20.530Z,96.94
2018-01-16T19:02:48.047Z,97.09
2018-01-16T19:05:15.635Z,95.98
2018-01-16T19:07:43.243Z,96.02
2018-01-16T19:10:10.795Z,96.13
2018-01-16T19:12:38.398Z,96.56
2018-01-16T19:15:05.958Z,96.51
2018-01-16T19:17:33.484Z,96.68
2018-01-16T19:20:01.097Z,97.52
2018-01-16T19:22:28.661Z,97.61
2018-01-16T19:24:56.233Z,97.22
2018-01-16T19:27:23.785Z,97.45
2018-01-16T19:29:51.279Z,97.36
2018-01-16T19:32:18.852Z,97.63
2018-01-16T19:34:46.436Z,96.76
2018-01-16T19:37:13.995Z,96.80
2018-01-16T19:39:41.508Z,97.93
2018-01-16T19:42:09.059Z,97.36
2018-01-16T19:44:36.721Z,97.58
2018-01-16T19:47:04.226Z,97.99
2018-01-16T19:49:31.790Z,98.06
2018-01-16T19:51:59.394Z,98.26
2018-01-16T19:54:26.990Z,98.56
2018-01-16T19:56:54.531Z,98.49
2018-01-16T19:59:22.072Z,98.49
2018-01-16T20:01:49.644Z,98.62
2018-01-16T20:04:17.176Z,98.09
2018-01-16T20:06:44.767Z,98.67
2018-01-16T20:09:13.232Z,97.95
2018-01-16T20:11:40.749Z,98.02
2018-01-16T20:14:08.323Z,97.83
2018-01-16T20:16:35.906Z,97.45
2018-01-16T20:19:03.458Z,97.33
2018-01-16T20:21:31.062Z,96.72
2018-01-16T20:23:58.625Z,96.91
2018-01-16T20:26:26.131Z,96.57
2018-01-16T20:28:53.683Z,96.64
2018-01-16T20:31:21.453Z,95.73
2018-01-16T20:33:49.054Z,95.35
2018-01-16T20:36:16.596Z,94.70
2018-01-16T20:38:44.109Z,94.25
2018-01-16T20:41:11.710Z,94.35
2018-01-16T20:43:39.223Z,94.52
2018-01-16T20:46:06.766Z,94.17
2018-01-16T20:48:34.304Z,94.35
2018-01-16T20:51:01.879Z,94.19
2018-01-16T20:53:29.440Z,94.38
2018-01-16T20:55:56.943Z,94.62
2018-01-16T20:58:24.536Z,95.07
2018-01-16T21:00:52.086Z,94.50
2018-01-16T21:03:19.608Z,94.73
2018-01-16T21:05:47.205Z,94.71
2018-01-16T21:08:14.711Z,94.99
2018-01-16T21:10:42.280Z,95.35
2018-01-16T21:13:09.874Z,95.68
2018-01-16T21:15:37.418Z,95.56
2018-01-16T21:18:04.956Z,95.97
2018-01-16T21:20:32.713Z,96.48
2018-01-16T21:23:00.270Z,96.32
2018-01-16T21:25:27.806Z,96.50
2018-01-16T21:27:55.534Z,97.06
2018-01-16T21:30:23.069Z,96.59
2018-01-16T21:32:50.639Z,96.25
2018-01-16T21:35:18.246Z,96.16
2018-01-16T21:37:45.869Z,95.96
2018-01-16T21:40:13.388Z,96.10
2018-01-16T21:42:40.899Z,95.76
2018-01-16T21:45:08.436Z,95.45
2018-01-16T21:47:35.968Z,94.91
2018-01-16T21:50:03.553Z,94.49
2018-01-16T21:52:31.075Z,94.75
2018-01-16T21:54:58.944Z,95.56
2018-01-16T21:57:26.485Z,95.67
2018-01-16T21:59:54.045Z,96.13
2018-01-16T22:02:21.641Z,96.20
2018-01-16T22:04:49.142Z,96.87
2018-01-16T22:07:16.677Z,96.97
2018-01-16T22:09:44.293Z,97.23
2018-01-16T22:12:12.004Z,97.25
2018-01-16T22:14:39.523Z,98.14
2018-01-16T22:17:07.086Z,98.38
2018-01-16T22:19:34.769Z,98.29
2018-01-16T22:22:02.350Z,98.29
2018-01-16T22:24:29.890Z,98.60
2018-01-16T22:26:57.460Z,98.51
2018-01-16T22:29:24.976Z,98.23
2018-01-16T22:31:52.487Z,98.27
2018-01-16T22:34:20.015Z,98.56
2018-01-16T22:36:47.678Z,98.60
2018-01-16T22:39:15.334Z,99.03
2018-01-16T22:41:42.878Z,98.76
2018-01-16T22:44:10.477Z,98.60
2018-01-16T22:46:38.027Z,98.79
2018-01-16T22:49:05.644Z,98.95
2018-01-16T22:51:33.736Z,98.93
2018-01-16T22:54:01.239Z,99.15
2018-01-16T22:56:28.772Z,98.72
2018-01-16T22:58:56.350Z,98.54
2018-01-16T23:01:23.913Z,98.49
2018-01-16T23:03:51.488Z,97.99
2018-01-16T23:06:19.098Z,97.86
2018-01-16T23:08:46.647Z,97.23
2018-01-16T23:11:14.155Z,96.86
2018-01-16T23:13:41.725Z,96.41
2018-01-16T23:16:09.365Z,96.29
2018-01-16T23:18:37.095Z,96.39
2018-01-16T23:21:04.818Z,96.32
2018-01-16T23:23:32.595Z,96.66
2018-01-16T23:26:00.116Z,96.88
2018-01-16T23:28:27.741Z,97.12
2018-01-16T23:30:55.246Z,97.71
2018-01-16T23:33:22.990Z,98.04
2018-01-16T23:35:50.506Z,98.01
2018-01-16T23:38:18.377Z,97.96
2018-01-16T23:40:45.893Z,97.96
2018-01-16T23:43:13.451Z,97.65
2018-01-16T23:45:40.985Z,97.93
2018-01-16T23:48:08.554Z,98.07
2018-01-16T23:50:36.131Z,97.98
2018-01-16T23:53:03.666Z,98.02
2018-01-16T23:55:31.245Z,97.62
2018-01-16T23:57:58.792Z,97.50
